Time;durP1;ratioP1;P1;durP2;ratioP2;P2;SDS_P1;SDS_P2;PMS_P1;PMS_P2;Temp;Humidity;BMP_temperature;BMP_pressure;BME280_temperature;BME280_humidity;BME280_pressure;Samples;Min_cycle;Max_cycle;Signal;HPM_P1;HPM_P2
2022/05/06 00:01:03;;;;;;;27.40;13.75;;;10.30;99.90;;;;;;5093694;28;20044;-82
2022/05/06 00:03:30;;;;;;;22.52;12.55;;;10.30;99.90;;;;;;5145610;27;20047;-85
2022/05/06 00:05:56;;;;;;;27.15;13.45;;;10.30;99.90;;;;;;5110842;28;20086;-83
2022/05/06 00:08:22;;;;;;;25.20;13.57;;;10.20;99.90;;;;;;5111259;28;20108;-83
2022/05/06 00:10:47;;;;;;;24.10;12.88;;;10.20;99.90;;;;;;5122336;27;20056;-83
2022/05/06 00:13:13;;;;;;;26.92;13.43;;;10.10;99.90;;;;;;5111062;28;20040;-83
2022/05/06 00:15:39;;;;;;;30.90;13.60;;;10.10;99.90;;;;;;5110408;28;20051;-84
2022/05/06 00:18:05;;;;;;;23.35;12.02;;;10.10;99.90;;;;;;5111416;28;20047;-83
2022/05/06 00:20:31;;;;;;;27.27;14.55;;;10.00;99.90;;;;;;5127713;27;20749;-84
2022/05/06 00:22:57;;;;;;;26.92;14.00;;;10.00;99.90;;;;;;5127745;27;20047;-83
2022/05/06 00:25:24;;;;;;;28.13;13.55;;;9.90;99.90;;;;;;5093181;28;20172;-83
2022/05/06 00:27:49;;;;;;;26.77;13.95;;;9.90;99.90;;;;;;5110735;28;20473;-83
2022/05/06 00:30:15;;;;;;;24.17;13.48;;;9.90;99.90;;;;;;5127575;27;20560;-84
2022/05/06 00:32:41;;;;;;;28.40;14.02;;;9.90;99.90;;;;;;5093852;28;20138;-83
2022/05/06 00:35:07;;;;;;;26.42;14.52;;;9.90;99.90;;;;;;5127880;28;20058;-84
2022/05/06 00:37:33;;;;;;;23.90;13.18;;;9.80;99.90;;;;;;5096453;28;20058;-86
2022/05/06 00:39:59;;;;;;;26.30;13.63;;;9.80;99.90;;;;;;5090525;28;20044;-83
2022/05/06 00:42:25;;;;;;;26.15;13.85;;;9.70;99.90;;;;;;5084098;28;20505;-83
2022/05/06 00:44:50;;;;;;;25.70;13.05;;;9.70;99.90;;;;;;5094253;28;20039;-84
2022/05/06 00:47:20;;;;;;;24.02;13.38;;;9.60;99.90;;;;;;5093870;28;20445;-83
2022/05/06 00:49:46;;;;;;;22.98;12.40;;;9.60;99.90;;;;;;5093944;28;20039;-83
2022/05/06 00:52:12;;;;;;;;;;;9.60;99.90;;;;;;5111024;28;20055;-84
2022/05/06 00:54:39;;;;;;;26.67;13.02;;;9.50;99.90;;;;;;5118874;28;20281;-82
2022/05/06 00:57:07;;;;;;;27.70;14.30;;;9.40;99.90;;;;;;5127188;27;20547;-84
2022/05/06 01:00:17;;;;;;;27.98;13.38;;;9.50;99.90;;;;;;5110077;28;20066;-85
2022/05/06 01:02:20;;;;;;;25.30;13.25;;;9.40;99.90;;;;;;5110970;28;20074;-84
2022/05/06 01:04:46;;;;;;;30.52;13.50;;;9.40;99.90;;;;;;5077235;28;20044;-83
2022/05/06 01:07:13;;;;;;;26.88;13.63;;;9.40;99.90;;;;;;5110381;28;20782;-83
2022/05/06 01:09:39;;;;;;;29.25;14.52;;;9.30;99.90;;;;;;5076661;28;20048;-83
2022/05/06 01:12:06;;;;;;;29.85;14.23;;;9.30;99.90;;;;;;5093330;28;20047;-83
2022/05/06 01:14:33;;;;;;;29.83;14.40;;;9.30;99.90;;;;;;5113933;28;20054;-84
2022/05/06 01:16:58;;;;;;;23.63;13.15;;;9.30;99.90;;;;;;5148915;27;20060;-83
2022/05/06 01:19:24;;;;;;;23.40;11.98;;;9.20;99.90;;;;;;5114444;28;20538;-83
2022/05/06 01:21:53;;;;;;;27.48;13.50;;;9.20;99.90;;;;;;5096496;28;20048;-84
2022/05/06 01:24:19;;;;;;;26.48;14.13;;;9.10;99.90;;;;;;5114581;28;20046;-83
2022/05/06 01:27:00;;;;;;;30.98;15.07;;;9.10;99.90;;;;;;5096411;28;20130;-83
2022/05/06 01:29:27;;;;;;;26.70;14.27;;;9.10;99.90;;;;;;5148316;27;20047;-84
2022/05/06 01:31:53;;;;;;;30.98;14.95;;;9.10;99.90;;;;;;5096442;28;20063;-83
2022/05/06 01:34:22;;;;;;;29.00;14.10;;;9.10;99.90;;;;;;5096192;28;20051;-84
2022/05/06 01:36:51;;;;;;;25.20;14.02;;;9.00;99.90;;;;;;5147054;27;20139;-83
2022/05/06 01:39:22;;;;;;;28.80;14.10;;;9.00;99.90;;;;;;5114127;28;20047;-84
2022/05/06 01:41:53;;;;;;;24.30;13.40;;;9.00;99.90;;;;;;5146663;27;20044;-84
2022/05/06 01:44:21;;;;;;;29.20;13.85;;;8.90;99.90;;;;;;5096289;28;20058;-83
2022/05/06 01:46:47;;;;;;;28.00;13.65;;;8.90;99.90;;;;;;5096802;28;20388;-84
2022/05/06 01:49:15;;;;;;;25.73;13.00;;;8.90;99.90;;;;;;5113997;28;20056;-83
2022/05/06 01:51:42;;;;;;;26.75;12.60;;;8.80;99.90;;;;;;5147494;27;20093;-84
2022/05/06 01:54:09;;;;;;;25.02;12.07;;;8.80;99.90;;;;;;5147979;27;20134;-83
2022/05/06 01:56:35;;;;;;;25.67;13.63;;;8.90;99.90;;;;;;5096032;28;20065;-83
2022/05/06 01:59:01;;;;;;;28.13;13.68;;;8.70;99.90;;;;;;5112477;28;20606;-83
2022/05/06 02:01:27;;;;;;;29.30;14.20;;;8.70;99.90;;;;;;5104618;28;20050;-84
2022/05/06 02:06:37;;;;;;;31.65;15.65;;;8.70;99.90;;;;;;5127069;27;20404;-85
2022/05/06 02:09:03;;;;;;;31.52;15.65;;;8.70;99.90;;;;;;5084609;28;20051;-83
2022/05/06 02:11:28;;;;;;;29.90;16.20;;;8.60;99.90;;;;;;5112909;28;20050;-83
2022/05/06 02:13:55;;;;;;;34.95;15.38;;;8.60;99.90;;;;;;5112610;28;20039;-83
2022/05/06 02:16:21;;;;;;;28.88;15.00;;;8.60;99.90;;;;;;5113083;28;20454;-84
2022/05/06 02:18:46;;;;;;;29.48;14.63;;;8.70;99.90;;;;;;5095557;28;20127;-84
2022/05/06 02:21:12;;;;;;;26.85;15.32;;;8.60;99.90;;;;;;5129623;27;20048;-83
2022/05/06 02:23:38;;;;;;;29.35;14.75;;;8.50;99.90;;;;;;5095774;28;20044;-84
2022/05/06 02:26:04;;;;;;;27.75;13.48;;;8.50;99.90;;;;;;5129472;27;20048;-83
2022/05/06 02:28:29;;;;;;;25.52;13.02;;;8.50;99.90;;;;;;5096201;28;20555;-83
2022/05/06 02:33:39;;;;;;;22.98;12.52;;;8.40;99.90;;;;;;5103072;28;20113;-85
2022/05/06 02:36:06;;;;;;;26.63;14.07;;;8.30;99.90;;;;;;5092096;28;20485;-83
2022/05/06 02:38:32;;;;;;;26.55;13.48;;;8.30;99.90;;;;;;5092645;28;20052;-83
2022/05/06 02:40:58;;;;;;;;;;;8.30;99.90;;;;;;5091904;28;20076;-83
2022/05/06 02:43:24;;;;;;;25.98;13.98;;;8.30;99.90;;;;;;5092589;28;19924;-83
2022/05/06 02:45:49;;;;;;;32.13;14.38;;;8.20;99.90;;;;;;5115891;27;20555;-83
2022/05/06 02:48:15;;;;;;;27.10;14.35;;;8.20;99.90;;;;;;5078900;28;20055;-83
2022/05/06 02:50:43;;;;;;;28.08;13.93;;;8.20;99.90;;;;;;5129254;27;20048;-85
2022/05/06 02:53:10;;;;;;;27.27;13.70;;;8.10;99.90;;;;;;5146842;27;20048;-84
2022/05/06 02:55:35;;;;;;;;;;;8.00;99.90;;;;;;5112624;28;20093;-83
2022/05/06 02:58:01;;;;;;;28.20;14.10;;;8.00;99.90;;;;;;5111895;28;20008;-83
2022/05/06 03:00:28;;;;;;;32.47;15.63;;;8.00;99.90;;;;;;5112447;28;20051;-84
2022/05/06 03:02:55;;;;;;;29.67;14.93;;;8.00;99.90;;;;;;5095435;28;20087;-83
2022/05/06 03:05:21;;;;;;;32.00;14.82;;;8.00;99.90;;;;;;5095618;28;20048;-83
2022/05/06 03:07:47;;;;;;;29.08;14.20;;;7.90;99.90;;;;;;5094912;28;20067;-83
2022/05/06 03:10:12;;;;;;;27.00;13.90;;;7.90;99.90;;;;;;5094811;28;20079;-84
2022/05/06 03:12:42;;;;;;;34.38;13.77;;;7.90;99.90;;;;;;5081906;28;20477;-84
2022/05/06 03:15:08;;;;;;;30.42;14.70;;;7.80;99.90;;;;;;5091476;28;20048;-83
2022/05/06 03:17:34;;;;;;;30.05;15.00;;;7.80;99.90;;;;;;5075334;28;20704;-83
2022/05/06 03:20:00;;;;;;;;;;;7.70;99.90;;;;;;5092051;28;20051;-83
2022/05/06 03:22:28;;;;;;;23.63;12.07;;;7.70;99.90;;;;;;5145823;27;19919;-83
2022/05/06 03:24:54;;;;;;;27.95;13.07;;;8.10;99.90;;;;;;5146376;27;20077;-83
2022/05/06 03:30:05;;;;;;;24.60;11.98;;;7.60;99.90;;;;;;5131097;27;20488;-83
2022/05/06 03:32:33;;;;;;;22.83;12.02;;;7.60;99.90;;;;;;5111886;28;20063;-83
2022/05/06 03:34:59;;;;;;;22.08;10.55;;;7.60;99.90;;;;;;5077230;28;20051;-84
2022/05/06 03:37:26;;;;;;;25.95;11.73;;;7.60;99.90;;;;;;5128392;27;20040;-83
2022/05/06 03:39:51;;;;;;;23.30;12.95;;;7.60;99.90;;;;;;5111119;28;20100;-83
2022/05/06 03:42:17;;;;;;;28.02;13.00;;;7.50;99.90;;;;;;5111010;28;20043;-83
2022/05/06 03:44:42;;;;;;;22.60;12.32;;;7.50;99.90;;;;;;5093932;28;20051;-83
2022/05/06 03:47:08;;;;;;;26.10;12.75;;;7.80;99.90;;;;;;5128502;27;20043;-84
2022/05/06 03:49:34;;;;;;;24.27;12.32;;;7.50;99.90;;;;;;5111682;28;20500;-83
2022/05/06 03:52:00;;;;;;;27.50;11.95;;;7.50;99.90;;;;;;5110274;28;20439;-83
2022/05/06 03:54:26;;;;;;;25.88;13.23;;;7.40;99.90;;;;;;5111740;28;20058;-83
2022/05/06 03:56:52;;;;;;;27.23;13.45;;;7.50;99.90;;;;;;5110657;28;20047;-84
2022/05/06 03:59:17;;;;;;;25.52;13.25;;;7.60;99.90;;;;;;5111336;28;20480;-83
2022/05/06 04:01:43;;;;;;;25.75;13.13;;;7.60;99.90;;;;;;5128426;27;20066;-84
2022/05/06 04:04:09;;;;;;;32.80;15.88;;;7.60;99.90;;;;;;5127953;27;20576;-83
2022/05/06 04:06:35;;;;;;;27.00;14.15;;;7.50;99.90;;;;;;5128081;27;20152;-83
2022/05/06 04:09:00;;;;;;;30.17;14.73;;;7.50;99.90;;;;;;5093775;28;20047;-83
2022/05/06 04:11:26;;;;;;;34.95;15.13;;;7.60;99.90;;;;;;5110711;28;20093;-83
2022/05/06 04:13:52;;;;;;;28.02;14.63;;;7.50;99.90;;;;;;5110780;27;20039;-83
2022/05/06 04:16:17;;;;;;;28.30;14.50;;;7.50;99.90;;;;;;5111342;28;20070;-83
2022/05/06 04:18:43;;;;;;;30.15;15.15;;;7.50;99.90;;;;;;5077314;28;20545;-83
2022/05/06 04:23:53;;;;;;;30.60;15.43;;;7.50;99.90;;;;;;5103364;28;20061;-83
2022/05/06 04:26:19;;;;;;;30.42;15.80;;;7.50;99.90;;;;;;5110243;28;20051;-83
2022/05/06 04:28:45;;;;;;;29.88;15.00;;;7.50;99.90;;;;;;5110201;28;20058;-83
2022/05/06 04:31:11;;;;;;;27.30;14.57;;;7.50;99.90;;;;;;5109624;28;20138;-83
2022/05/06 04:33:40;;;;;;;28.83;14.32;;;7.60;99.90;;;;;;5127461;27;20073;-83
2022/05/06 04:36:06;;;;;;;25.83;13.57;;;7.70;99.90;;;;;;5109235;28;20048;-83
2022/05/06 04:38:32;;;;;;;26.33;12.65;;;7.60;99.90;;;;;;5144486;27;20083;-83
2022/05/06 04:40:59;;;;;;;20.63;11.25;;;7.60;99.90;;;;;;5091508;28;20036;-83
2022/05/06 04:43:27;;;;;;;22.02;11.68;;;7.60;99.90;;;;;;5092705;28;20043;-83
2022/05/06 04:45:53;;;;;;;24.27;12.55;;;7.60;99.90;;;;;;5108124;28;20058;-83
2022/05/06 04:48:19;;;;;;;;;;;7.60;99.90;;;;;;5128867;27;20097;-83
2022/05/06 04:50:46;;;;;;;25.02;11.80;;;7.70;99.90;;;;;;5076116;28;19920;-84
2022/05/06 04:53:13;;;;;;;25.08;13.23;;;7.70;99.90;;;;;;5109862;28;20477;-83
2022/05/06 04:55:41;;;;;;;25.98;13.25;;;7.80;99.90;;;;;;5122419;27;20430;-83
2022/05/06 04:58:07;;;;;;;28.10;14.40;;;7.80;99.90;;;;;;5130289;27;20043;-83
2022/05/06 05:00:33;;;;;;;28.08;14.93;;;7.80;99.90;;;;;;5147472;27;20047;-83
2022/05/06 05:03:00;;;;;;;29.27;14.95;;;7.90;99.90;;;;;;5146993;27;20047;-84
2022/05/06 05:05:27;;;;;;;25.77;13.45;;;7.90;99.90;;;;;;5113325;28;20055;-82
2022/05/06 05:07:53;;;;;;;;;;;7.90;99.90;;;;;;5112576;28;20051;-83
2022/05/06 05:10:20;;;;;;;24.73;12.75;;;8.00;99.90;;;;;;5139936;27;20334;-83
2022/05/06 05:12:46;;;;;;;24.42;12.95;;;8.00;99.90;;;;;;5113372;28;20090;-82
2022/05/06 05:15:11;;;;;;;23.02;12.77;;;8.00;99.90;;;;;;5112350;28;20120;-83
2022/05/06 05:17:37;;;;;;;30.77;14.30;;;8.00;99.90;;;;;;5113242;28;20047;-84
2022/05/06 05:20:04;;;;;;;32.00;15.70;;;8.50;99.90;;;;;;5112587;28;20472;-83
2022/05/06 05:22:31;;;;;;;31.27;15.27;;;8.00;99.90;;;;;;5095760;28;20047;-83
2022/05/06 05:24:57;;;;;;;28.85;14.68;;;8.10;99.90;;;;;;5095507;28;20052;-83
2022/05/06 05:27:23;;;;;;;29.70;15.40;;;8.10;99.90;;;;;;5112503;27;20059;-83
2022/05/06 05:29:48;;;;;;;33.80;16.20;;;8.20;99.90;;;;;;5146242;27;20051;-83
2022/05/06 05:32:14;;;;;;;35.63;16.80;;;8.20;99.90;;;;;;5111771;28;20063;-83
2022/05/06 05:34:42;;;;;;;36.85;16.55;;;8.30;99.90;;;;;;5130230;27;20047;-83
2022/05/06 05:37:11;;;;;;;32.00;16.10;;;8.60;99.90;;;;;;5111733;28;20047;-83
2022/05/06 05:39:37;;;;;;;32.22;16.70;;;8.40;99.90;;;;;;5113372;27;20039;-83
2022/05/06 05:42:04;;;;;;;37.55;17.90;;;8.50;99.90;;;;;;5110874;28;20097;-82
2022/05/06 05:49:58;;;;;;;40.78;19.60;;;8.80;99.90;;;;;;5091458;28;20052;-82
2022/05/06 05:52:24;;;;;;;44.78;19.23;;;8.80;99.90;;;;;;5091095;28;20044;-83
2022/05/06 05:54:50;;;;;;;41.95;20.35;;;8.90;99.90;;;;;;5079957;28;20045;-83
2022/05/06 05:57:15;;;;;;;39.53;19.50;;;9.00;99.90;;;;;;5128332;27;20054;-84
2022/05/06 05:59:41;;;;;;;41.50;19.95;;;9.10;99.90;;;;;;5128201;27;20043;-83
2022/05/06 06:02:10;;;;;;;42.08;20.75;;;9.10;99.90;;;;;;5141397;27;20489;-83
2022/05/06 06:04:37;;;;;;;39.92;19.58;;;9.20;99.90;;;;;;5095000;28;20047;-83
2022/05/06 06:07:03;;;;;;;44.65;20.92;;;9.30;99.90;;;;;;5110862;28;20454;-83
2022/05/06 06:09:29;;;;;;;48.47;21.70;;;9.40;99.90;;;;;;5095691;28;20048;-83
2022/05/06 06:11:54;;;;;;;42.35;20.65;;;9.50;99.90;;;;;;5094748;28;20079;-84
2022/05/06 06:14:20;;;;;;;48.00;23.05;;;9.60;99.90;;;;;;5111624;28;20452;-82
2022/05/06 06:16:47;;;;;;;47.60;21.88;;;9.60;99.90;;;;;;5077909;28;20130;-82
2022/05/06 06:19:13;;;;;;;50.05;22.48;;;9.80;99.90;;;;;;5129135;27;20825;-82
2022/05/06 06:21:39;;;;;;;52.47;23.02;;;9.90;99.90;;;;;;5094578;28;20039;-82
2022/05/06 06:24:05;;;;;;;53.72;23.75;;;10.00;99.90;;;;;;5111885;27;20083;-83
2022/05/06 06:26:30;;;;;;;57.47;25.75;;;10.20;99.90;;;;;;5094697;28;20101;-82
2022/05/06 06:28:56;;;;;;;59.58;24.42;;;10.20;99.90;;;;;;5111371;28;20142;-83
2022/05/06 06:31:22;;;;;;;56.25;25.83;;;10.30;99.90;;;;;;5111585;28;20077;-83
2022/05/06 06:33:47;;;;;;;56.15;25.13;;;10.40;99.90;;;;;;5111943;28;20430;-81
2022/05/06 06:36:13;;;;;;;57.03;27.20;;;10.50;99.90;;;;;;5091174;28;20093;-81
2022/05/06 06:38:39;;;;;;;54.88;25.42;;;10.60;99.90;;;;;;5094433;28;20120;-79
2022/05/06 06:41:05;;;;;;;49.60;24.00;;;10.70;99.90;;;;;;5093745;28;20046;-83
2022/05/06 06:43:31;;;;;;;46.60;23.90;;;10.80;99.90;;;;;;5094916;28;20048;-80
2022/05/06 06:45:57;;;;;;;55.92;23.75;;;10.80;99.90;;;;;;5111496;28;20052;-84
2022/05/06 06:48:26;;;;;;;53.67;23.17;;;11.00;99.90;;;;;;5095637;28;20054;-82
2022/05/06 06:50:55;;;;;;;49.40;24.70;;;11.00;99.90;;;;;;5094948;28;20039;-84
2022/05/06 06:53:21;;;;;;;52.05;25.75;;;11.10;99.90;;;;;;5094048;28;20130;-83
2022/05/06 06:55:48;;;;;;;52.40;24.75;;;11.20;99.90;;;;;;5127623;27;20382;-85
2022/05/06 06:58:13;;;;;;;;;;;11.30;99.90;;;;;;5091698;28;20077;-84
2022/05/06 07:00:42;;;;;;;59.35;25.98;;;11.40;99.90;;;;;;5111374;28;19920;-84
2022/05/06 07:03:11;;;;;;;56.45;26.73;;;11.40;99.90;;;;;;5111151;28;20175;-85
2022/05/06 07:05:37;;;;;;;57.22;26.85;;;11.50;99.90;;;;;;5111632;28;20047;-84
2022/05/06 07:13:32;;;;;;;56.67;25.25;;;11.80;99.90;;;;;;5097169;28;20477;-84
2022/05/06 07:15:58;;;;;;;53.05;25.90;;;11.90;99.90;;;;;;5110945;28;20051;-84
2022/05/06 07:18:24;;;;;;;;;;;12.00;99.90;;;;;;5111158;28;20043;-84
2022/05/06 07:20:49;;;;;;;49.75;23.67;;;12.00;99.90;;;;;;5141290;27;19920;-84
2022/05/06 07:23:15;;;;;;;46.50;22.80;;;12.10;99.90;;;;;;5087836;28;20047;-84
2022/05/06 07:25:41;;;;;;;46.85;23.48;;;12.20;99.90;;;;;;5106333;28;20047;-84
2022/05/06 07:28:08;;;;;;;44.55;22.30;;;12.20;99.90;;;;;;5083018;28;20048;-84
2022/05/06 07:30:34;;;;;;;43.00;19.83;;;12.30;99.90;;;;;;5086246;28;20194;-84
2022/05/06 07:33:00;;;;;;;46.42;21.58;;;12.30;99.90;;;;;;5068089;28;20431;-84
2022/05/06 07:35:25;;;;;;;36.30;19.92;;;12.40;99.90;;;;;;5051451;28;20119;-83
2022/05/06 07:37:51;;;;;;;38.63;19.88;;;12.30;99.90;;;;;;5064818;28;20083;-84
2022/05/06 07:40:17;;;;;;;36.35;18.70;;;12.40;99.90;;;;;;5063224;28;20039;-84
2022/05/06 07:42:45;;;;;;;39.85;19.42;;;12.40;99.90;;;;;;5084764;28;20086;-84
2022/05/06 07:45:15;;;;;;;31.48;18.10;;;12.40;99.90;;;;;;5067365;28;20119;-85
2022/05/06 07:47:41;;;;;;;36.22;17.80;;;12.50;99.90;;;;;;5066708;28;20037;-86
2022/05/06 07:50:07;;;;;;;36.33;18.88;;;12.50;99.90;;;;;;5095663;28;20048;-85
2022/05/06 07:52:33;;;;;;;36.53;17.60;;;12.50;99.90;;;;;;5075197;28;20057;-87
2022/05/06 07:54:58;;;;;;;39.30;19.35;;;12.50;99.90;;;;;;5049895;28;20495;-86
2022/05/06 07:57:24;;;;;;;36.63;18.67;;;12.50;99.90;;;;;;5031779;28;20074;-88
2022/05/06 07:59:50;;;;;;;36.78;17.58;;;12.50;99.90;;;;;;5049574;28;20048;-83
2022/05/06 08:05:00;;;;;;;42.90;19.58;;;12.50;99.90;;;;;;5065470;28;20553;-84
2022/05/06 08:07:25;;;;;;;39.00;17.80;;;12.50;99.90;;;;;;5085034;28;20116;-83
2022/05/06 08:09:51;;;;;;;41.85;20.15;;;12.50;99.90;;;;;;5027970;28;20409;-83
2022/05/06 08:12:17;;;;;;;36.72;17.50;;;12.60;99.90;;;;;;5036273;28;20075;-83
2022/05/06 08:14:44;;;;;;;37.78;18.02;;;12.60;99.90;;;;;;5054968;28;20044;-82
2022/05/06 08:17:10;;;;;;;34.95;17.08;;;12.60;99.90;;;;;;5052713;28;20098;-83
2022/05/06 08:19:35;;;;;;;39.40;19.67;;;12.70;99.90;;;;;;5033935;28;20375;-83
2022/05/06 08:22:01;;;;;;;43.92;21.40;;;12.70;99.90;;;;;;5042956;28;20041;-83
2022/05/06 08:24:27;;;;;;;44.83;21.52;;;12.80;99.90;;;;;;5069722;28;20051;-83
2022/05/06 08:26:53;;;;;;;43.63;21.65;;;12.80;99.90;;;;;;5070042;28;20052;-84
2022/05/06 08:29:19;;;;;;;42.45;20.30;;;12.80;99.90;;;;;;5084591;28;20041;-85
2022/05/06 08:31:47;;;;;;;40.63;20.65;;;12.90;99.90;;;;;;5062129;28;20367;-84
2022/05/06 08:34:13;;;;;;;38.90;18.30;;;12.90;99.90;;;;;;5089234;28;20055;-84
2022/05/06 08:36:41;;;;;;;36.38;19.50;;;12.90;99.90;;;;;;5089367;28;20040;-85
2022/05/06 08:39:08;;;;;;;32.67;18.08;;;13.00;99.90;;;;;;5123490;28;20048;-83
2022/05/06 08:41:36;;;;;;;37.55;19.60;;;13.00;99.90;;;;;;5102728;28;20032;-84
2022/05/06 08:50:50;;;;;;;34.58;19.00;;;13.00;99.90;;;;;;5070221;28;20052;-83
2022/05/06 08:52:39;;;;;;;33.80;17.10;;;13.00;99.90;;;;;;5085135;28;20101;-81
2022/05/06 08:55:06;;;;;;;36.20;18.90;;;13.10;99.90;;;;;;5104082;28;20044;-82
2022/05/06 08:57:32;;;;;;;34.72;16.45;;;13.10;99.90;;;;;;5033516;28;20055;-81
2022/05/06 08:59:58;;;;;;;35.10;19.15;;;13.20;99.90;;;;;;5068923;28;20047;-84
2022/05/06 09:02:24;;;;;;;;;;;13.20;99.90;;;;;;5103348;28;20040;-82
2022/05/06 09:04:50;;;;;;;31.13;14.82;;;13.20;99.90;;;;;;5093484;28;19920;-83
2022/05/06 09:07:20;;;;;;;;;;;13.30;99.90;;;;;;5088762;28;20090;-83
2022/05/06 09:10:14;;;;;;;35.53;18.17;;;13.40;99.90;;;;;;5089197;28;20284;-88
2022/05/06 09:12:46;;;;;;;25.85;14.25;;;13.40;99.90;;;;;;5073372;28;20059;-87
2022/05/06 09:18:02;;;;;;;28.48;15.38;;;13.60;99.90;;;;;;5089506;28;20058;-86
2022/05/06 09:20:29;;;;;;;32.13;15.25;;;13.60;99.90;;;;;;5105720;28;20109;-86
2022/05/06 09:22:56;;;;;;;30.80;16.10;;;13.70;99.90;;;;;;5088587;28;20135;-86
2022/05/06 09:25:45;;;;;;;26.23;13.00;;;13.80;99.90;;;;;;5122129;28;20512;-86
2022/05/06 09:28:23;;;;;;;25.23;14.43;;;13.90;99.90;;;;;;5072230;28;20083;-87
2022/05/06 09:31:06;;;;;;;29.40;14.68;;;13.90;99.90;;;;;;5088333;28;20148;-86
2022/05/06 09:33:36;;;;;;;25.52;13.52;;;14.10;99.90;;;;;;5089546;28;20060;-86
2022/05/06 09:36:30;;;;;;;27.63;13.55;;;14.10;99.90;;;;;;5075274;28;20044;-86
2022/05/06 09:39:04;;;;;;;26.58;14.23;;;14.20;99.90;;;;;;5092777;28;20626;-85
2022/05/06 09:41:31;;;;;;;23.77;13.02;;;14.30;99.90;;;;;;5074631;28;20108;-85
2022/05/06 09:44:05;;;;;;;24.35;12.73;;;14.40;99.90;;;;;;5092403;28;20086;-85
2022/05/06 09:46:31;;;;;;;21.50;11.75;;;14.40;99.90;;;;;;5126634;27;20054;-85
2022/05/06 09:49:00;;;;;;;18.50;10.05;;;14.50;99.90;;;;;;5092763;28;20036;-85
2022/05/06 09:51:26;;;;;;;21.40;11.00;;;14.60;99.90;;;;;;5074846;28;20115;-84
2022/05/06 09:53:53;;;;;;;24.08;12.18;;;14.60;99.90;;;;;;5126842;27;20085;-85
2022/05/06 09:56:20;;;;;;;20.52;11.88;;;14.70;99.90;;;;;;5125283;27;20044;-85
2022/05/06 09:58:46;;;;;;;23.92;13.43;;;14.80;99.90;;;;;;5126267;27;20067;-85
2022/05/06 10:01:14;;;;;;;24.63;11.90;;;14.80;99.90;;;;;;5092173;28;20047;-85
2022/05/06 10:03:40;;;;;;;22.38;12.27;;;15.00;99.90;;;;;;5092683;28;20139;-85
2022/05/06 10:06:09;;;;;;;18.10;8.77;;;15.10;99.90;;;;;;5058521;28;20222;-84
2022/05/06 10:08:38;;;;;;;17.00;9.60;;;15.30;99.90;;;;;;5091822;28;20566;-85
2022/05/06 10:11:15;;;;;;;22.85;11.48;;;15.40;99.90;;;;;;5091565;28;20054;-85
2022/05/06 10:13:44;;;;;;;19.35;11.05;;;15.40;99.90;;;;;;5074894;28;20067;-86
2022/05/06 10:16:11;;;;;;;19.15;10.43;;;15.60;99.90;;;;;;5074500;28;20493;-85
2022/05/06 10:18:38;;;;;;;18.75;8.98;;;15.70;99.90;;;;;;5091497;28;20048;-85
2022/05/06 10:21:08;;;;;;;21.02;8.98;;;15.70;99.90;;;;;;5108581;27;20624;-85
2022/05/06 10:23:47;;;;;;;16.52;9.00;;;15.80;99.90;;;;;;5108754;28;20052;-86
2022/05/06 10:26:35;;;;;;;16.50;8.82;;;15.90;99.90;;;;;;5091428;28;20166;-85
2022/05/06 10:34:35;;;;;;;18.58;9.27;;;16.10;99.90;;;;;;5091431;28;20065;-85
2022/05/06 10:37:12;;;;;;;18.35;9.65;;;16.20;99.90;;;;;;5070376;28;20051;-83
2022/05/06 10:39:39;;;;;;;14.85;6.50;;;16.30;99.90;;;;;;5071001;28;20084;-83
2022/05/06 10:42:08;;;;;;;12.93;6.50;;;16.30;99.90;;;;;;5053686;28;20050;-83
2022/05/06 10:44:40;;;;;;;13.82;7.07;;;16.40;99.90;;;;;;5070084;28;20109;-83
2022/05/06 10:47:12;;;;;;;14.57;7.07;;;16.50;99.90;;;;;;5087926;28;20055;-83
2022/05/06 10:49:38;;;;;;;13.48;7.65;;;16.60;99.90;;;;;;5091142;28;20051;-83
2022/05/06 10:52:16;;;;;;;14.18;6.28;;;16.70;99.90;;;;;;5090895;28;20055;-83
2022/05/06 10:54:42;;;;;;;13.60;6.32;;;16.70;99.90;;;;;;5090990;28;20048;-84
2022/05/06 10:57:09;;;;;;;9.18;5.38;;;16.80;99.90;;;;;;5090740;28;20048;-83
2022/05/06 10:59:50;;;;;;;8.43;4.88;;;16.90;99.90;;;;;;5090254;28;20056;-84
2022/05/06 11:02:17;;;;;;;6.90;4.22;;;17.00;99.90;;;;;;5091102;28;20055;-84
2022/05/06 11:04:53;;;;;;;6.43;3.58;;;17.00;99.90;;;;;;5091089;28;20051;-83
2022/05/06 11:07:19;;;;;;;6.57;3.60;;;17.10;99.90;;;;;;5090000;28;20047;-83
2022/05/06 11:09:45;;;;;;;7.25;4.00;;;17.20;99.90;;;;;;5090124;28;20290;-82
2022/05/06 11:12:12;;;;;;;8.85;4.47;;;17.30;99.90;;;;;;5089765;28;20048;-84
2022/05/06 11:14:38;;;;;;;7.68;4.30;;;17.40;99.90;;;;;;5072942;28;20052;-82
2022/05/06 11:17:17;;;;;;;5.53;3.35;;;17.40;99.90;;;;;;5074179;28;20048;-82
2022/05/06 11:19:42;;;;;;;5.07;2.92;;;17.50;99.90;;;;;;5090290;28;20058;-82
2022/05/06 11:22:09;;;;;;;4.88;3.40;;;17.70;99.90;;;;;;5073350;28;20048;-82
2022/05/06 11:24:35;;;;;;;5.60;3.42;;;17.80;99.90;;;;;;5090328;28;20047;-83
2022/05/06 11:27:14;;;;;;;;;;;17.80;99.90;;;;;;5073794;28;20485;-84
2022/05/06 11:29:50;;;;;;;5.80;2.85;;;17.90;99.90;;;;;;5086311;28;19927;-83
2022/05/06 11:32:16;;;;;;;5.38;3.33;;;18.00;99.90;;;;;;5090264;28;20181;-84
2022/05/06 11:35:01;;;;;;;5.70;3.60;;;18.10;99.90;;;;;;5090193;28;20048;-83
2022/05/06 11:37:29;;;;;;;5.40;3.10;;;18.20;99.90;;;;;;5088015;28;20071;-83
2022/05/06 11:42:40;;;;;;;5.93;3.53;;;18.50;99.90;;;;;;5089921;28;20496;-82
2022/05/06 11:47:51;;;;;;;5.13;3.50;;;18.70;98.60;;;;;;5090547;28;20481;-83
2022/05/06 11:50:18;;;;;;;6.05;4.15;;;18.90;98.60;;;;;;5073096;28;20051;-83
2022/05/06 11:52:45;;;;;;;5.63;3.60;;;19.10;96.80;;;;;;5055660;28;20063;-83
2022/05/06 11:55:14;;;;;;;6.43;3.78;;;19.20;96.20;;;;;;5086323;28;20083;-84
2022/05/06 11:57:41;;;;;;;8.27;4.40;;;19.30;96.30;;;;;;5089106;28;20054;-83
2022/05/06 12:00:08;;;;;;;7.30;4.22;;;19.40;95.10;;;;;;5107061;28;20088;-84
2022/05/06 12:02:34;;;;;;;3.65;2.30;;;19.70;94.00;;;;;;5085340;28;20055;-84
2022/05/06 12:04:59;;;;;;;;;;;19.80;91.60;;;;;;5090761;28;20115;-83
2022/05/06 12:07:48;;;;;;;3.83;2.40;;;20.00;90.60;;;;;;5055592;28;20260;-83
2022/05/06 12:10:29;;;;;;;5.68;3.22;;;20.20;90.00;;;;;;5087280;28;20036;-83
2022/05/06 12:13:00;;;;;;;4.90;2.20;;;20.50;88.50;;;;;;5089817;28;20044;-83
2022/05/06 12:15:39;;;;;;;3.25;1.85;;;20.80;87.50;;;;;;5088848;28;20430;-83
2022/05/06 12:18:10;;;;;;;4.57;2.85;;;20.90;80.00;;;;;;5090040;28;20047;-82
2022/05/06 12:20:37;;;;;;;4.72;3.20;;;21.10;79.20;;;;;;5105784;28;20040;-83
2022/05/06 12:23:08;;;;;;;6.53;3.30;;;21.30;80.20;;;;;;5089208;28;20055;-83
2022/05/06 12:25:36;;;;;;;7.43;3.47;;;21.60;78.50;;;;;;5088468;28;20076;-83
2022/05/06 12:28:15;;;;;;;4.13;2.75;;;21.80;80.00;;;;;;5082932;28;20039;-84
2022/05/06 12:30:42;;;;;;;6.05;3.40;;;22.00;73.80;;;;;;5075149;28;20485;-84
2022/05/06 12:33:17;;;;;;;6.57;3.15;;;22.10;73.60;;;;;;5084555;28;20044;-83
2022/05/06 12:36:04;;;;;;;5.93;2.90;;;22.20;72.60;;;;;;5071723;28;20040;-83
2022/05/06 12:38:38;;;;;;;;;;;22.40;68.10;;;;;;5085854;28;20398;-83
2022/05/06 12:41:32;;;;;;;7.53;3.00;;;22.50;67.10;;;;;;5088363;28;19919;-83
2022/05/06 12:44:16;;;;;;;4.05;2.83;;;22.60;66.40;;;;;;5071646;28;20105;-83
2022/05/06 12:46:42;;;;;;;5.40;2.85;;;22.80;65.50;;;;;;5088074;28;20052;-83
2022/05/06 12:51:52;;;;;;;6.00;3.35;;;23.20;64.30;;;;;;5068855;28;20062;-84
2022/05/06 12:54:18;;;;;;;5.20;3.30;;;23.50;65.00;;;;;;5071694;28;20040;-85
2022/05/06 12:56:43;;;;;;;4.35;3.00;;;23.70;63.60;;;;;;5071195;28;20508;-84
2022/05/06 12:59:09;;;;;;;4.22;2.50;;;23.90;65.00;;;;;;5068056;28;20131;-84
2022/05/06 13:01:35;;;;;;;4.55;2.00;;;24.00;62.50;;;;;;5088175;28;20070;-83
2022/05/06 13:04:01;;;;;;;4.38;2.10;;;24.20;60.80;;;;;;5088801;28;20044;-83
2022/05/06 13:06:30;;;;;;;2.28;1.80;;;24.30;57.00;;;;;;5088705;28;20052;-83
2022/05/06 13:08:55;;;;;;;3.03;1.98;;;24.30;56.60;;;;;;5091954;28;20109;-84
2022/05/06 13:11:21;;;;;;;2.67;2.10;;;24.30;56.10;;;;;;5109287;28;20048;-83
2022/05/06 13:13:47;;;;;;;4.90;2.45;;;24.30;55.00;;;;;;5089899;28;20052;-84
2022/05/06 13:16:12;;;;;;;7.07;2.38;;;24.40;55.60;;;;;;5092525;28;20047;-84
2022/05/06 13:18:39;;;;;;;5.70;2.20;;;24.60;57.70;;;;;;5092735;28;20477;-84
2022/05/06 13:21:05;;;;;;;4.72;1.90;;;24.90;57.00;;;;;;5090940;28;20597;-84
2022/05/06 13:23:31;;;;;;;4.75;1.90;;;25.00;55.80;;;;;;5081341;28;20037;-84
2022/05/06 13:25:57;;;;;;;2.33;1.40;;;25.20;55.80;;;;;;5088019;28;20493;-86
2022/05/06 13:28:23;;;;;;;4.28;1.90;;;25.40;55.20;;;;;;5072877;28;20509;-83
2022/05/06 13:30:48;;;;;;;4.05;1.95;;;25.70;54.80;;;;;;5071198;28;20097;-85